sensor_id;sensor_type;location;lat;lon;timestamp;P1;durP1;ratioP1;P2;durP2;ratioP2
21152;SDS011;10734;44.792;20.482;2024-03-02T00:00:20;28.25;;;16.48;;
21152;SDS011;10734;44.792;20.482;2024-03-02T00:02:48;24.05;;;15.65;;
21152;SDS011;10734;44.792;20.482;2024-03-02T00:05:19;32.88;;;16.63;;
21152;SDS011;10734;44.792;20.482;2024-03-02T00:07:47;29.92;;;17.55;;
21152;SDS011;10734;44.792;20.482;2024-03-02T00:10:52;29.42;;;17.65;;
21152;SDS011;10734;44.792;20.482;2024-03-02T00:13:11;34.03;;;17.15;;
21152;SDS011;10734;44.792;20.482;2024-03-02T00:15:49;30.23;;;16.58;;
21152;SDS011;10734;44.792;20.482;2024-03-02T00:18:39;27.80;;;18.45;;
21152;SDS011;10734;44.792;20.482;2024-03-02T00:21:05;31.88;;;17.70;;
21152;SDS011;10734;44.792;20.482;2024-03-02T00:23:32;29.88;;;17.02;;
21152;SDS011;10734;44.792;20.482;2024-03-02T00:26:00;30.65;;;17.20;;
21152;SDS011;10734;44.792;20.482;2024-03-02T00:28:27;30.75;;;17.27;;
21152;SDS011;10734;44.792;20.482;2024-03-02T00:33:25;33.00;;;19.17;;
21152;SDS011;10734;44.792;20.482;2024-03-02T00:35:52;32.67;;;18.10;;
21152;SDS011;10734;44.792;20.482;2024-03-02T00:38:19;31.45;;;18.98;;
21152;SDS011;10734;44.792;20.482;2024-03-02T00:40:46;30.52;;;19.67;;
21152;SDS011;10734;44.792;20.482;2024-03-02T00:43:39;30.25;;;18.50;;
21152;SDS011;10734;44.792;20.482;2024-03-02T00:45:59;29.92;;;19.38;;
21152;SDS011;10734;44.792;20.482;2024-03-02T00:48:26;33.05;;;18.70;;
21152;SDS011;10734;44.792;20.482;2024-03-02T00:50:53;31.98;;;19.90;;
21152;SDS011;10734;44.792;20.482;2024-03-02T00:53:20;31.33;;;19.40;;
21152;SDS011;10734;44.792;20.482;2024-03-02T00:55:50;32.95;;;19.15;;
21152;SDS011;10734;44.792;20.482;2024-03-02T00:58:17;32.45;;;19.17;;
21152;SDS011;10734;44.792;20.482;2024-03-02T01:00:44;27.90;;;18.15;;
21152;SDS011;10734;44.792;20.482;2024-03-02T01:03:11;31.85;;;19.13;;
21152;SDS011;10734;44.792;20.482;2024-03-02T01:05:41;30.10;;;18.25;;
21152;SDS011;10734;44.792;20.482;2024-03-02T01:08:08;25.75;;;17.90;;
21152;SDS011;10734;44.792;20.482;2024-03-02T01:10:35;28.58;;;17.45;;
21152;SDS011;10734;44.792;20.482;2024-03-02T01:13:01;27.13;;;17.42;;
21152;SDS011;10734;44.792;20.482;2024-03-02T01:15:28;26.73;;;18.00;;
21152;SDS011;10734;44.792;20.482;2024-03-02T01:17:55;26.02;;;16.77;;
21152;SDS011;10734;44.792;20.482;2024-03-02T01:20:21;25.38;;;14.27;;
21152;SDS011;10734;44.792;20.482;2024-03-02T01:22:48;26.88;;;15.63;;
21152;SDS011;10734;44.792;20.482;2024-03-02T01:25:15;24.38;;;15.57;;
21152;SDS011;10734;44.792;20.482;2024-03-02T01:27:42;27.60;;;16.58;;
21152;SDS011;10734;44.792;20.482;2024-03-02T01:30:08;24.08;;;15.63;;
21152;SDS011;10734;44.792;20.482;2024-03-02T01:32:35;25.20;;;14.45;;
21152;SDS011;10734;44.792;20.482;2024-03-02T01:35:04;24.25;;;15.45;;
21152;SDS011;10734;44.792;20.482;2024-03-02T01:37:31;24.63;;;14.20;;
21152;SDS011;10734;44.792;20.482;2024-03-02T01:39:57;26.75;;;15.23;;
21152;SDS011;10734;44.792;20.482;2024-03-02T01:42:24;22.13;;;13.73;;
21152;SDS011;10734;44.792;20.482;2024-03-02T01:44:51;24.80;;;13.32;;
21152;SDS011;10734;44.792;20.482;2024-03-02T01:47:17;25.67;;;12.93;;
21152;SDS011;10734;44.792;20.482;2024-03-02T01:49:44;21.35;;;13.23;;
21152;SDS011;10734;44.792;20.482;2024-03-02T01:52:10;19.67;;;13.15;;
21152;SDS011;10734;44.792;20.482;2024-03-02T01:54:37;18.95;;;12.45;;
21152;SDS011;10734;44.792;20.482;2024-03-02T01:57:04;20.42;;;12.07;;
21152;SDS011;10734;44.792;20.482;2024-03-02T01:59:31;20.10;;;12.88;;
21152;SDS011;10734;44.792;20.482;2024-03-02T02:01:57;18.00;;;12.77;;
21152;SDS011;10734;44.792;20.482;2024-03-02T02:04:24;21.83;;;12.73;;
21152;SDS011;10734;44.792;20.482;2024-03-02T02:06:54;19.42;;;11.95;;
21152;SDS011;10734;44.792;20.482;2024-03-02T02:09:20;19.65;;;12.07;;
21152;SDS011;10734;44.792;20.482;2024-03-02T02:11:47;18.65;;;11.77;;
21152;SDS011;10734;44.792;20.482;2024-03-02T02:14:14;19.38;;;11.98;;
21152;SDS011;10734;44.792;20.482;2024-03-02T02:16:40;21.33;;;13.23;;
21152;SDS011;10734;44.792;20.482;2024-03-02T02:19:07;18.83;;;11.98;;
21152;SDS011;10734;44.792;20.482;2024-03-02T02:21:34;19.48;;;12.07;;
21152;SDS011;10734;44.792;20.482;2024-03-02T02:24:01;15.27;;;10.93;;
21152;SDS011;10734;44.792;20.482;2024-03-02T02:26:29;17.70;;;11.98;;
21152;SDS011;10734;44.792;20.482;2024-03-02T02:28:56;16.90;;;11.80;;
21152;SDS011;10734;44.792;20.482;2024-03-02T02:31:23;16.15;;;11.77;;
21152;SDS011;10734;44.792;20.482;2024-03-02T02:33:49;20.08;;;11.95;;
21152;SDS011;10734;44.792;20.482;2024-03-02T02:36:16;15.55;;;10.45;;
21152;SDS011;10734;44.792;20.482;2024-03-02T02:38:43;17.70;;;11.40;;
21152;SDS011;10734;44.792;20.482;2024-03-02T02:41:10;15.98;;;10.88;;
21152;SDS011;10734;44.792;20.482;2024-03-02T02:43:37;17.55;;;11.40;;
21152;SDS011;10734;44.792;20.482;2024-03-02T02:46:05;17.08;;;10.95;;
21152;SDS011;10734;44.792;20.482;2024-03-02T02:48:32;19.20;;;10.85;;
21152;SDS011;10734;44.792;20.482;2024-03-02T02:50:58;16.10;;;10.80;;
21152;SDS011;10734;44.792;20.482;2024-03-02T02:53:25;14.93;;;10.52;;
21152;SDS011;10734;44.792;20.482;2024-03-02T02:55:51;13.93;;;9.70;;
21152;SDS011;10734;44.792;20.482;2024-03-02T02:58:18;22.67;;;11.77;;
21152;SDS011;10734;44.792;20.482;2024-03-02T03:00:44;15.60;;;10.50;;
21152;SDS011;10734;44.792;20.482;2024-03-02T03:03:11;15.75;;;10.82;;
21152;SDS011;10734;44.792;20.482;2024-03-02T03:05:37;15.48;;;10.50;;
21152;SDS011;10734;44.792;20.482;2024-03-02T03:08:04;17.65;;;10.35;;
21152;SDS011;10734;44.792;20.482;2024-03-02T03:10:31;14.85;;;9.48;;
21152;SDS011;10734;44.792;20.482;2024-03-02T03:12:57;14.60;;;9.38;;
21152;SDS011;10734;44.792;20.482;2024-03-02T03:15:24;15.50;;;9.88;;
21152;SDS011;10734;44.792;20.482;2024-03-02T03:17:50;15.40;;;9.70;;
21152;SDS011;10734;44.792;20.482;2024-03-02T03:20:17;12.88;;;8.80;;
21152;SDS011;10734;44.792;20.482;2024-03-02T03:22:44;14.80;;;9.70;;
21152;SDS011;10734;44.792;20.482;2024-03-02T03:25:10;13.02;;;9.02;;
21152;SDS011;10734;44.792;20.482;2024-03-02T03:27:37;13.98;;;9.40;;
21152;SDS011;10734;44.792;20.482;2024-03-02T03:30:04;13.43;;;8.30;;
21152;SDS011;10734;44.792;20.482;2024-03-02T03:32:33;15.20;;;9.27;;
21152;SDS011;10734;44.792;20.482;2024-03-02T03:34:59;13.05;;;8.50;;
21152;SDS011;10734;44.792;20.482;2024-03-02T03:37:26;15.50;;;9.13;;
21152;SDS011;10734;44.792;20.482;2024-03-02T03:39:59;13.38;;;8.95;;
21152;SDS011;10734;44.792;20.482;2024-03-02T03:42:27;11.50;;;7.55;;
21152;SDS011;10734;44.792;20.482;2024-03-02T03:44:54;12.68;;;7.75;;
21152;SDS011;10734;44.792;20.482;2024-03-02T03:47:23;10.88;;;7.53;;
21152;SDS011;10734;44.792;20.482;2024-03-02T03:49:49;12.23;;;7.75;;
21152;SDS011;10734;44.792;20.482;2024-03-02T03:52:16;11.57;;;7.68;;
21152;SDS011;10734;44.792;20.482;2024-03-02T03:54:42;9.88;;;7.18;;
21152;SDS011;10734;44.792;20.482;2024-03-02T03:57:11;12.18;;;7.53;;
21152;SDS011;10734;44.792;20.482;2024-03-02T03:59:37;11.38;;;7.72;;
21152;SDS011;10734;44.792;20.482;2024-03-02T04:02:04;9.45;;;6.88;;
21152;SDS011;10734;44.792;20.482;2024-03-02T04:04:30;9.48;;;6.60;;
21152;SDS011;10734;44.792;20.482;2024-03-02T04:06:57;11.07;;;6.80;;
21152;SDS011;10734;44.792;20.482;2024-03-02T04:09:24;8.38;;;5.90;;
21152;SDS011;10734;44.792;20.482;2024-03-02T04:11:51;10.60;;;7.45;;
21152;SDS011;10734;44.792;20.482;2024-03-02T04:14:18;14.45;;;6.78;;
21152;SDS011;10734;44.792;20.482;2024-03-02T04:16:45;8.93;;;6.70;;
21152;SDS011;10734;44.792;20.482;2024-03-02T04:19:12;8.77;;;6.43;;
21152;SDS011;10734;44.792;20.482;2024-03-02T04:21:38;10.13;;;5.95;;
21152;SDS011;10734;44.792;20.482;2024-03-02T04:24:05;10.02;;;6.50;;
21152;SDS011;10734;44.792;20.482;2024-03-02T04:26:32;9.48;;;6.35;;
21152;SDS011;10734;44.792;20.482;2024-03-02T04:28:58;12.05;;;6.20;;
21152;SDS011;10734;44.792;20.482;2024-03-02T04:31:25;9.00;;;6.22;;
21152;SDS011;10734;44.792;20.482;2024-03-02T04:33:51;8.43;;;5.88;;
21152;SDS011;10734;44.792;20.482;2024-03-02T04:36:18;9.35;;;6.05;;
21152;SDS011;10734;44.792;20.482;2024-03-02T04:38:45;9.38;;;6.45;;
21152;SDS011;10734;44.792;20.482;2024-03-02T04:41:11;8.50;;;6.07;;
21152;SDS011;10734;44.792;20.482;2024-03-02T04:43:38;8.68;;;6.30;;
21152;SDS011;10734;44.792;20.482;2024-03-02T04:46:05;9.15;;;6.30;;
21152;SDS011;10734;44.792;20.482;2024-03-02T04:48:32;8.50;;;5.82;;
21152;SDS011;10734;44.792;20.482;2024-03-02T04:50:59;8.05;;;5.78;;
21152;SDS011;10734;44.792;20.482;2024-03-02T04:53:25;9.20;;;6.25;;
21152;SDS011;10734;44.792;20.482;2024-03-02T04:55:52;9.40;;;6.07;;
21152;SDS011;10734;44.792;20.482;2024-03-02T04:58:36;9.77;;;5.78;;
21152;SDS011;10734;44.792;20.482;2024-03-02T05:01:02;7.93;;;5.57;;
21152;SDS011;10734;44.792;20.482;2024-03-02T05:03:29;10.27;;;6.10;;
21152;SDS011;10734;44.792;20.482;2024-03-02T05:05:56;8.23;;;6.10;;
21152;SDS011;10734;44.792;20.482;2024-03-02T05:08:22;7.55;;;5.57;;
21152;SDS011;10734;44.792;20.482;2024-03-02T05:10:49;8.35;;;6.22;;
21152;SDS011;10734;44.792;20.482;2024-03-02T05:13:16;7.25;;;5.32;;
21152;SDS011;10734;44.792;20.482;2024-03-02T05:15:43;9.43;;;4.93;;
21152;SDS011;10734;44.792;20.482;2024-03-02T05:18:10;8.50;;;5.35;;
21152;SDS011;10734;44.792;20.482;2024-03-02T05:20:37;7.13;;;5.18;;
21152;SDS011;10734;44.792;20.482;2024-03-02T05:23:03;9.00;;;5.70;;
21152;SDS011;10734;44.792;20.482;2024-03-02T05:25:30;8.10;;;5.68;;
21152;SDS011;10734;44.792;20.482;2024-03-02T05:27:56;8.70;;;5.55;;
21152;SDS011;10734;44.792;20.482;2024-03-02T05:30:23;7.90;;;5.40;;
21152;SDS011;10734;44.792;20.482;2024-03-02T05:32:52;8.30;;;4.90;;
21152;SDS011;10734;44.792;20.482;2024-03-02T05:35:19;7.95;;;5.35;;
21152;SDS011;10734;44.792;20.482;2024-03-02T05:37:45;8.73;;;5.82;;
21152;SDS011;10734;44.792;20.482;2024-03-02T05:40:12;6.38;;;4.68;;
21152;SDS011;10734;44.792;20.482;2024-03-02T05:42:39;6.93;;;4.57;;
21152;SDS011;10734;44.792;20.482;2024-03-02T05:45:07;7.53;;;4.57;;
21152;SDS011;10734;44.792;20.482;2024-03-02T05:47:34;9.45;;;5.45;;
21152;SDS011;10734;44.792;20.482;2024-03-02T05:50:01;10.68;;;5.97;;
21152;SDS011;10734;44.792;20.482;2024-03-02T05:52:27;10.43;;;5.70;;
21152;SDS011;10734;44.792;20.482;2024-03-02T05:54:54;11.45;;;6.10;;
21152;SDS011;10734;44.792;20.482;2024-03-02T05:57:20;7.32;;;5.10;;
21152;SDS011;10734;44.792;20.482;2024-03-02T06:00:07;8.07;;;4.45;;
21152;SDS011;10734;44.792;20.482;2024-03-02T06:02:34;7.63;;;5.20;;
21152;SDS011;10734;44.792;20.482;2024-03-02T06:05:05;7.25;;;4.38;;
21152;SDS011;10734;44.792;20.482;2024-03-02T06:07:33;7.72;;;4.80;;
21152;SDS011;10734;44.792;20.482;2024-03-02T06:10:00;6.47;;;4.00;;
21152;SDS011;10734;44.792;20.482;2024-03-02T06:12:26;6.43;;;4.05;;
21152;SDS011;10734;44.792;20.482;2024-03-02T06:14:53;6.35;;;3.92;;
21152;SDS011;10734;44.792;20.482;2024-03-02T06:17:20;6.25;;;4.00;;
21152;SDS011;10734;44.792;20.482;2024-03-02T06:19:46;8.27;;;5.35;;
21152;SDS011;10734;44.792;20.482;2024-03-02T06:22:14;6.75;;;4.50;;
21152;SDS011;10734;44.792;20.482;2024-03-02T06:24:40;10.00;;;4.22;;
21152;SDS011;10734;44.792;20.482;2024-03-02T06:27:07;6.07;;;4.15;;
21152;SDS011;10734;44.792;20.482;2024-03-02T06:29:34;8.38;;;4.22;;
21152;SDS011;10734;44.792;20.482;2024-03-02T06:32:00;9.38;;;4.40;;
21152;SDS011;10734;44.792;20.482;2024-03-02T06:34:27;6.15;;;4.28;;
21152;SDS011;10734;44.792;20.482;2024-03-02T06:36:54;6.97;;;4.15;;
21152;SDS011;10734;44.792;20.482;2024-03-02T06:39:20;6.78;;;4.53;;
21152;SDS011;10734;44.792;20.482;2024-03-02T06:41:47;5.75;;;3.55;;
21152;SDS011;10734;44.792;20.482;2024-03-02T06:44:13;5.57;;;3.83;;
21152;SDS011;10734;44.792;20.482;2024-03-02T06:46:40;7.85;;;3.70;;
21152;SDS011;10734;44.792;20.482;2024-03-02T06:49:07;4.38;;;3.42;;
21152;SDS011;10734;44.792;20.482;2024-03-02T06:51:33;6.32;;;3.63;;
21152;SDS011;10734;44.792;20.482;2024-03-02T06:54:00;8.85;;;3.40;;
21152;SDS011;10734;44.792;20.482;2024-03-02T06:56:27;5.50;;;3.40;;
21152;SDS011;10734;44.792;20.482;2024-03-02T06:58:53;6.45;;;3.30;;
21152;SDS011;10734;44.792;20.482;2024-03-02T07:01:20;8.57;;;3.78;;
21152;SDS011;10734;44.792;20.482;2024-03-02T07:03:51;7.28;;;4.20;;
21152;SDS011;10734;44.792;20.482;2024-03-02T07:06:17;7.07;;;3.78;;
21152;SDS011;10734;44.792;20.482;2024-03-02T07:08:44;4.93;;;3.60;;
21152;SDS011;10734;44.792;20.482;2024-03-02T07:11:10;5.88;;;3.38;;
21152;SDS011;10734;44.792;20.482;2024-03-02T07:13:37;5.03;;;3.33;;
21152;SDS011;10734;44.792;20.482;2024-03-02T07:16:03;5.25;;;3.65;;
21152;SDS011;10734;44.792;20.482;2024-03-02T07:18:30;9.57;;;4.45;;
21152;SDS011;10734;44.792;20.482;2024-03-02T07:20:57;6.30;;;3.88;;
21152;SDS011;10734;44.792;20.482;2024-03-02T07:23:27;6.82;;;3.60;;
21152;SDS011;10734;44.792;20.482;2024-03-02T07:25:54;9.35;;;3.63;;
21152;SDS011;10734;44.792;20.482;2024-03-02T07:28:25;5.23;;;2.57;;
21152;SDS011;10734;44.792;20.482;2024-03-02T07:31:02;6.00;;;3.53;;
21152;SDS011;10734;44.792;20.482;2024-03-02T07:33:29;4.22;;;3.58;;
21152;SDS011;10734;44.792;20.482;2024-03-02T07:35:56;5.25;;;3.65;;
21152;SDS011;10734;44.792;20.482;2024-03-02T07:38:23;6.95;;;4.00;;
21152;SDS011;10734;44.792;20.482;2024-03-02T07:40:49;6.85;;;3.83;;
21152;SDS011;10734;44.792;20.482;2024-03-02T07:43:17;5.68;;;3.38;;
21152;SDS011;10734;44.792;20.482;2024-03-02T07:45:44;8.60;;;3.55;;
21152;SDS011;10734;44.792;20.482;2024-03-02T07:48:10;5.93;;;3.45;;
21152;SDS011;10734;44.792;20.482;2024-03-02T07:50:37;5.60;;;3.75;;
21152;SDS011;10734;44.792;20.482;2024-03-02T07:53:05;6.30;;;3.92;;
21152;SDS011;10734;44.792;20.482;2024-03-02T07:55:32;6.90;;;4.28;;
21152;SDS011;10734;44.792;20.482;2024-03-02T07:57:58;7.68;;;3.70;;
21152;SDS011;10734;44.792;20.482;2024-03-02T08:00:25;5.53;;;3.80;;
21152;SDS011;10734;44.792;20.482;2024-03-02T08:02:53;7.65;;;4.00;;
21152;SDS011;10734;44.792;20.482;2024-03-02T08:05:20;7.05;;;4.03;;
21152;SDS011;10734;44.792;20.482;2024-03-02T08:07:47;4.25;;;3.15;;
21152;SDS011;10734;44.792;20.482;2024-03-02T08:10:13;5.70;;;3.40;;
21152;SDS011;10734;44.792;20.482;2024-03-02T08:12:40;6.88;;;3.97;;
21152;SDS011;10734;44.792;20.482;2024-03-02T08:15:07;8.25;;;3.80;;
21152;SDS011;10734;44.792;20.482;2024-03-02T08:17:33;7.28;;;3.67;;
21152;SDS011;10734;44.792;20.482;2024-03-02T08:20:03;8.13;;;3.72;;
21152;SDS011;10734;44.792;20.482;2024-03-02T08:22:30;7.82;;;3.60;;
21152;SDS011;10734;44.792;20.482;2024-03-02T08:24:57;4.18;;;2.95;;
21152;SDS011;10734;44.792;20.482;2024-03-02T08:27:23;5.88;;;3.00;;
21152;SDS011;10734;44.792;20.482;2024-03-02T08:29:50;4.78;;;3.53;;
21152;SDS011;10734;44.792;20.482;2024-03-02T08:32:17;9.85;;;4.78;;
21152;SDS011;10734;44.792;20.482;2024-03-02T08:34:44;10.98;;;3.50;;
21152;SDS011;10734;44.792;20.482;2024-03-02T08:37:10;6.57;;;3.88;;
21152;SDS011;10734;44.792;20.482;2024-03-02T08:39:37;8.57;;;3.70;;
21152;SDS011;10734;44.792;20.482;2024-03-02T08:42:04;6.82;;;3.90;;
21152;SDS011;10734;44.792;20.482;2024-03-02T08:44:30;5.35;;;3.55;;
21152;SDS011;10734;44.792;20.482;2024-03-02T08:46:57;5.75;;;3.25;;
21152;SDS011;10734;44.792;20.482;2024-03-02T08:49:24;6.97;;;3.13;;
21152;SDS011;10734;44.792;20.482;2024-03-02T08:51:50;4.47;;;2.50;;
21152;SDS011;10734;44.792;20.482;2024-03-02T08:54:21;6.38;;;3.58;;
21152;SDS011;10734;44.792;20.482;2024-03-02T08:56:48;4.10;;;3.10;;
21152;SDS011;10734;44.792;20.482;2024-03-02T08:59:15;6.25;;;2.78;;
21152;SDS011;10734;44.792;20.482;2024-03-02T09:01:42;6.35;;;3.38;;
21152;SDS011;10734;44.792;20.482;2024-03-02T09:04:09;5.60;;;3.40;;
21152;SDS011;10734;44.792;20.482;2024-03-02T09:06:36;5.00;;;2.63;;
21152;SDS011;10734;44.792;20.482;2024-03-02T09:09:03;7.57;;;3.40;;
21152;SDS011;10734;44.792;20.482;2024-03-02T09:11:30;6.03;;;3.47;;
21152;SDS011;10734;44.792;20.482;2024-03-02T09:13:58;4.15;;;2.70;;
21152;SDS011;10734;44.792;20.482;2024-03-02T09:16:25;5.65;;;3.50;;
21152;SDS011;10734;44.792;20.482;2024-03-02T09:18:57;6.82;;;3.78;;
21152;SDS011;10734;44.792;20.482;2024-03-02T09:21:24;6.22;;;3.20;;
21152;SDS011;10734;44.792;20.482;2024-03-02T09:23:51;4.53;;;3.05;;
21152;SDS011;10734;44.792;20.482;2024-03-02T09:26:18;5.97;;;3.40;;
21152;SDS011;10734;44.792;20.482;2024-03-02T09:28:47;5.32;;;3.00;;
21152;SDS011;10734;44.792;20.482;2024-03-02T09:31:13;8.77;;;3.00;;
21152;SDS011;10734;44.792;20.482;2024-03-02T09:33:40;10.90;;;3.10;;
21152;SDS011;10734;44.792;20.482;2024-03-02T09:36:19;4.90;;;3.35;;
21152;SDS011;10734;44.792;20.482;2024-03-02T09:38:46;6.20;;;3.63;;
21152;SDS011;10734;44.792;20.482;2024-03-02T09:41:14;5.75;;;3.38;;
21152;SDS011;10734;44.792;20.482;2024-03-02T09:43:40;6.10;;;3.42;;
21152;SDS011;10734;44.792;20.482;2024-03-02T09:46:10;6.32;;;3.90;;
21152;SDS011;10734;44.792;20.482;2024-03-02T09:48:37;5.68;;;3.15;;
21152;SDS011;10734;44.792;20.482;2024-03-02T09:51:04;5.25;;;3.10;;
21152;SDS011;10734;44.792;20.482;2024-03-02T09:53:31;4.88;;;2.90;;
21152;SDS011;10734;44.792;20.482;2024-03-02T09:56:01;8.30;;;4.70;;
21152;SDS011;10734;44.792;20.482;2024-03-02T09:58:28;6.18;;;3.92;;
21152;SDS011;10734;44.792;20.482;2024-03-02T10:00:55;5.28;;;3.72;;
21152;SDS011;10734;44.792;20.482;2024-03-02T10:03:22;5.95;;;3.47;;
21152;SDS011;10734;44.792;20.482;2024-03-02T10:05:49;6.07;;;3.17;;
21152;SDS011;10734;44.792;20.482;2024-03-02T10:08:16;6.10;;;3.00;;
21152;SDS011;10734;44.792;20.482;2024-03-02T10:10:42;5.03;;;3.13;;
21152;SDS011;10734;44.792;20.482;2024-03-02T10:13:12;6.30;;;3.05;;
21152;SDS011;10734;44.792;20.482;2024-03-02T10:15:40;7.20;;;3.17;;
21152;SDS011;10734;44.792;20.482;2024-03-02T10:18:10;6.03;;;2.80;;
21152;SDS011;10734;44.792;20.482;2024-03-02T10:20:38;3.97;;;2.80;;
21152;SDS011;10734;44.792;20.482;2024-03-02T10:23:15;4.88;;;2.70;;
21152;SDS011;10734;44.792;20.482;2024-03-02T10:25:43;4.57;;;2.95;;
21152;SDS011;10734;44.792;20.482;2024-03-02T10:28:19;6.72;;;2.90;;
21152;SDS011;10734;44.792;20.482;2024-03-02T10:30:47;13.38;;;3.70;;
21152;SDS011;10734;44.792;20.482;2024-03-02T10:33:14;4.78;;;3.30;;
21152;SDS011;10734;44.792;20.482;2024-03-02T10:35:40;7.90;;;3.15;;
21152;SDS011;10734;44.792;20.482;2024-03-02T10:38:07;4.00;;;2.60;;
21152;SDS011;10734;44.792;20.482;2024-03-02T10:40:33;6.28;;;2.80;;
21152;SDS011;10734;44.792;20.482;2024-03-02T10:43:01;4.43;;;2.67;;
21152;SDS011;10734;44.792;20.482;2024-03-02T10:45:31;4.97;;;2.53;;
21152;SDS011;10734;44.792;20.482;2024-03-02T10:47:58;4.45;;;2.50;;
21152;SDS011;10734;44.792;20.482;2024-03-02T10:50:24;4.05;;;2.38;;
21152;SDS011;10734;44.792;20.482;2024-03-02T10:52:51;4.82;;;3.13;;
21152;SDS011;10734;44.792;20.482;2024-03-02T10:55:17;5.78;;;3.13;;
21152;SDS011;10734;44.792;20.482;2024-03-02T10:57:50;5.63;;;3.40;;
21152;SDS011;10734;44.792;20.482;2024-03-02T11:00:17;4.40;;;3.53;;
21152;SDS011;10734;44.792;20.482;2024-03-02T11:02:50;3.90;;;2.78;;
21152;SDS011;10734;44.792;20.482;2024-03-02T11:05:21;9.88;;;3.55;;
21152;SDS011;10734;44.792;20.482;2024-03-02T11:07:53;5.38;;;3.40;;
21152;SDS011;10734;44.792;20.482;2024-03-02T11:10:25;6.88;;;3.45;;
21152;SDS011;10734;44.792;20.482;2024-03-02T11:12:59;7.05;;;3.40;;
21152;SDS011;10734;44.792;20.482;2024-03-02T11:15:28;5.82;;;3.45;;
21152;SDS011;10734;44.792;20.482;2024-03-02T11:17:56;9.48;;;3.50;;
21152;SDS011;10734;44.792;20.482;2024-03-02T11:20:23;5.32;;;3.63;;
21152;SDS011;10734;44.792;20.482;2024-03-02T11:22:51;5.40;;;2.88;;
21152;SDS011;10734;44.792;20.482;2024-03-02T11:25:27;20.60;;;11.60;;
21152;SDS011;10734;44.792;20.482;2024-03-02T11:32:56;6.75;;;4.30;;
21152;SDS011;10734;44.792;20.482;2024-03-02T11:35:26;5.82;;;3.90;;
21152;SDS011;10734;44.792;20.482;2024-03-02T11:37:54;6.47;;;4.25;;
21152;SDS011;10734;44.792;20.482;2024-03-02T11:40:21;6.80;;;4.15;;
21152;SDS011;10734;44.792;20.482;2024-03-02T11:42:48;10.13;;;4.13;;
21152;SDS011;10734;44.792;20.482;2024-03-02T11:45:22;6.20;;;3.72;;
21152;SDS011;10734;44.792;20.482;2024-03-02T11:47:56;8.85;;;5.25;;
21152;SDS011;10734;44.792;20.482;2024-03-02T11:50:36;7.47;;;4.53;;
21152;SDS011;10734;44.792;20.482;2024-03-02T11:53:06;8.00;;;4.35;;
21152;SDS011;10734;44.792;20.482;2024-03-02T11:55:37;6.00;;;4.10;;
21152;SDS011;10734;44.792;20.482;2024-03-02T12:00:33;5.85;;;4.15;;
21152;SDS011;10734;44.792;20.482;2024-03-02T12:03:01;6.78;;;3.35;;
21152;SDS011;10734;44.792;20.482;2024-03-02T12:05:28;6.32;;;3.72;;
21152;SDS011;10734;44.792;20.482;2024-03-02T12:08:00;6.15;;;4.50;;
21152;SDS011;10734;44.792;20.482;2024-03-02T12:10:26;6.95;;;3.95;;
21152;SDS011;10734;44.792;20.482;2024-03-02T12:13:03;6.03;;;4.22;;
21152;SDS011;10734;44.792;20.482;2024-03-02T12:15:31;5.78;;;4.18;;
21152;SDS011;10734;44.792;20.482;2024-03-02T12:17:59;5.70;;;4.10;;
21152;SDS011;10734;44.792;20.482;2024-03-02T12:20:27;8.02;;;4.35;;
21152;SDS011;10734;44.792;20.482;2024-03-02T12:22:56;6.93;;;4.28;;
21152;SDS011;10734;44.792;20.482;2024-03-02T12:25:24;5.32;;;3.40;;
21152;SDS011;10734;44.792;20.482;2024-03-02T12:27:53;7.95;;;4.65;;
21152;SDS011;10734;44.792;20.482;2024-03-02T12:30:20;7.72;;;4.55;;
21152;SDS011;10734;44.792;20.482;2024-03-02T12:32:47;7.47;;;4.07;;
21152;SDS011;10734;44.792;20.482;2024-03-02T12:35:14;6.55;;;4.10;;
21152;SDS011;10734;44.792;20.482;2024-03-02T12:37:44;7.05;;;4.28;;
21152;SDS011;10734;44.792;20.482;2024-03-02T12:40:11;6.85;;;4.25;;
21152;SDS011;10734;44.792;20.482;2024-03-02T12:42:39;6.68;;;4.47;;
21152;SDS011;10734;44.792;20.482;2024-03-02T12:45:06;7.18;;;4.82;;
21152;SDS011;10734;44.792;20.482;2024-03-02T12:47:33;8.80;;;4.40;;
21152;SDS011;10734;44.792;20.482;2024-03-02T12:50:00;7.00;;;4.43;;
21152;SDS011;10734;44.792;20.482;2024-03-02T12:52:27;10.90;;;5.03;;
21152;SDS011;10734;44.792;20.482;2024-03-02T12:54:53;7.50;;;4.80;;
21152;SDS011;10734;44.792;20.482;2024-03-02T12:57:25;10.75;;;4.60;;
21152;SDS011;10734;44.792;20.482;2024-03-02T12:59:57;6.88;;;4.60;;
21152;SDS011;10734;44.792;20.482;2024-03-02T13:02:27;8.52;;;4.95;;
21152;SDS011;10734;44.792;20.482;2024-03-02T13:04:53;7.45;;;4.80;;
21152;SDS011;10734;44.792;20.482;2024-03-02T13:07:20;10.70;;;5.85;;
21152;SDS011;10734;44.792;20.482;2024-03-02T13:09:52;9.40;;;5.10;;
21152;SDS011;10734;44.792;20.482;2024-03-02T13:12:18;11.27;;;5.63;;
21152;SDS011;10734;44.792;20.482;2024-03-02T13:14:48;8.55;;;5.28;;
21152;SDS011;10734;44.792;20.482;2024-03-02T13:17:14;9.35;;;4.80;;
21152;SDS011;10734;44.792;20.482;2024-03-02T13:19:50;10.20;;;5.00;;
21152;SDS011;10734;44.792;20.482;2024-03-02T13:22:17;9.75;;;5.55;;
21152;SDS011;10734;44.792;20.482;2024-03-02T13:24:44;10.75;;;5.22;;
21152;SDS011;10734;44.792;20.482;2024-03-02T13:27:11;7.90;;;4.68;;
21152;SDS011;10734;44.792;20.482;2024-03-02T13:29:37;12.38;;;4.85;;
21152;SDS011;10734;44.792;20.482;2024-03-02T13:32:04;6.60;;;4.18;;
21152;SDS011;10734;44.792;20.482;2024-03-02T13:34:31;6.55;;;4.35;;
21152;SDS011;10734;44.792;20.482;2024-03-02T13:36:58;10.25;;;5.15;;
21152;SDS011;10734;44.792;20.482;2024-03-02T13:39:27;7.45;;;4.75;;
21152;SDS011;10734;44.792;20.482;2024-03-02T13:41:57;6.50;;;4.72;;
21152;SDS011;10734;44.792;20.482;2024-03-02T13:44:30;9.80;;;4.63;;
21152;SDS011;10734;44.792;20.482;2024-03-02T13:46:59;10.07;;;5.97;;
21152;SDS011;10734;44.792;20.482;2024-03-02T13:49:26;14.32;;;9.55;;
21152;SDS011;10734;44.792;20.482;2024-03-02T13:52:03;12.18;;;7.05;;
21152;SDS011;10734;44.792;20.482;2024-03-02T13:54:37;11.40;;;6.18;;
21152;SDS011;10734;44.792;20.482;2024-03-02T13:57:04;9.32;;;5.65;;
21152;SDS011;10734;44.792;20.482;2024-03-02T13:59:30;7.95;;;5.00;;
21152;SDS011;10734;44.792;20.482;2024-03-02T14:01:57;8.82;;;5.55;;
21152;SDS011;10734;44.792;20.482;2024-03-02T14:04:23;8.27;;;5.35;;
21152;SDS011;10734;44.792;20.482;2024-03-02T14:06:50;9.60;;;6.32;;
21152;SDS011;10734;44.792;20.482;2024-03-02T14:09:17;8.27;;;5.45;;
21152;SDS011;10734;44.792;20.482;2024-03-02T14:11:45;7.75;;;5.07;;
21152;SDS011;10734;44.792;20.482;2024-03-02T14:14:12;11.35;;;7.75;;
21152;SDS011;10734;44.792;20.482;2024-03-02T14:16:38;10.35;;;7.18;;
21152;SDS011;10734;44.792;20.482;2024-03-02T14:19:05;8.38;;;5.63;;
21152;SDS011;10734;44.792;20.482;2024-03-02T14:21:32;11.00;;;5.40;;
21152;SDS011;10734;44.792;20.482;2024-03-02T14:23:58;13.00;;;5.53;;
21152;SDS011;10734;44.792;20.482;2024-03-02T14:26:25;11.45;;;6.45;;
21152;SDS011;10734;44.792;20.482;2024-03-02T14:28:52;14.52;;;8.27;;
21152;SDS011;10734;44.792;20.482;2024-03-02T14:31:21;10.80;;;5.53;;
21152;SDS011;10734;44.792;20.482;2024-03-02T14:33:48;11.18;;;7.40;;
21152;SDS011;10734;44.792;20.482;2024-03-02T14:36:14;10.50;;;5.93;;
21152;SDS011;10734;44.792;20.482;2024-03-02T14:38:41;11.63;;;6.93;;